sensor_id;sensor_type;location;lat;lon;timestamp;P1;durP1;ratioP1;P2;durP2;ratioP2
57317;SDS011;43157;50.982;18.132;2023-09-07T00:01:30;11.90;;;5.20;;
57317;SDS011;43157;50.982;18.132;2023-09-07T00:03:56;12.40;;;5.60;;
57317;SDS011;43157;50.982;18.132;2023-09-07T00:06:22;13.10;;;4.90;;
57317;SDS011;43157;50.982;18.132;2023-09-07T00:08:49;13.40;;;5.50;;
57317;SDS011;43157;50.982;18.132;2023-09-07T00:11:15;13.90;;;5.20;;
57317;SDS011;43157;50.982;18.132;2023-09-07T00:13:41;15.10;;;5.60;;
57317;SDS011;43157;50.982;18.132;2023-09-07T00:16:07;12.60;;;4.80;;
57317;SDS011;43157;50.982;18.132;2023-09-07T00:18:34;11.70;;;5.40;;
57317;SDS011;43157;50.982;18.132;2023-09-07T00:21:00;12.10;;;5.30;;
57317;SDS011;43157;50.982;18.132;2023-09-07T00:23:26;11.50;;;4.90;;
57317;SDS011;43157;50.982;18.132;2023-09-07T00:25:52;15.40;;;5.90;;
57317;SDS011;43157;50.982;18.132;2023-09-07T00:28:19;12.30;;;5.20;;
57317;SDS011;43157;50.982;18.132;2023-09-07T00:30:45;13.90;;;5.10;;
57317;SDS011;43157;50.982;18.132;2023-09-07T00:33:11;12.80;;;6.10;;
57317;SDS011;43157;50.982;18.132;2023-09-07T00:35:37;13.60;;;5.00;;
57317;SDS011;43157;50.982;18.132;2023-09-07T00:38:03;14.90;;;5.70;;
57317;SDS011;43157;50.982;18.132;2023-09-07T00:40:30;13.20;;;5.50;;
57317;SDS011;43157;50.982;18.132;2023-09-07T00:42:55;11.20;;;4.70;;
57317;SDS011;43157;50.982;18.132;2023-09-07T00:45:21;12.30;;;5.40;;
57317;SDS011;43157;50.982;18.132;2023-09-07T00:47:47;13.00;;;5.00;;
57317;SDS011;43157;50.982;18.132;2023-09-07T00:50:14;14.30;;;5.60;;
57317;SDS011;43157;50.982;18.132;2023-09-07T00:52:41;13.50;;;5.70;;
57317;SDS011;43157;50.982;18.132;2023-09-07T00:55:08;14.60;;;5.90;;
57317;SDS011;43157;50.982;18.132;2023-09-07T00:57:35;12.60;;;5.10;;
57317;SDS011;43157;50.982;18.132;2023-09-07T01:00:02;12.50;;;4.80;;
57317;SDS011;43157;50.982;18.132;2023-09-07T01:02:31;14.50;;;5.50;;
57317;SDS011;43157;50.982;18.132;2023-09-07T01:04:57;12.80;;;5.00;;
57317;SDS011;43157;50.982;18.132;2023-09-07T01:07:43;12.50;;;5.80;;
57317;SDS011;43157;50.982;18.132;2023-09-07T01:10:12;13.40;;;5.30;;
57317;SDS011;43157;50.982;18.132;2023-09-07T01:12:42;12.90;;;5.70;;
57317;SDS011;43157;50.982;18.132;2023-09-07T01:15:07;13.80;;;5.70;;
57317;SDS011;43157;50.982;18.132;2023-09-07T01:17:35;15.70;;;5.20;;
57317;SDS011;43157;50.982;18.132;2023-09-07T01:20:03;13.60;;;4.70;;
57317;SDS011;43157;50.982;18.132;2023-09-07T01:22:35;16.90;;;6.00;;
57317;SDS011;43157;50.982;18.132;2023-09-07T01:25:02;11.70;;;5.60;;
57317;SDS011;43157;50.982;18.132;2023-09-07T01:27:30;12.70;;;5.70;;
57317;SDS011;43157;50.982;18.132;2023-09-07T01:29:57;13.70;;;5.40;;
57317;SDS011;43157;50.982;18.132;2023-09-07T01:32:22;12.70;;;4.90;;
57317;SDS011;43157;50.982;18.132;2023-09-07T01:34:49;16.10;;;5.60;;
57317;SDS011;43157;50.982;18.132;2023-09-07T01:37:15;14.00;;;6.10;;
57317;SDS011;43157;50.982;18.132;2023-09-07T01:39:41;12.30;;;5.30;;
57317;SDS011;43157;50.982;18.132;2023-09-07T01:42:08;14.20;;;5.30;;
57317;SDS011;43157;50.982;18.132;2023-09-07T01:44:34;13.10;;;5.60;;
57317;SDS011;43157;50.982;18.132;2023-09-07T01:47:00;13.70;;;5.30;;
57317;SDS011;43157;50.982;18.132;2023-09-07T01:49:26;12.80;;;5.30;;
57317;SDS011;43157;50.982;18.132;2023-09-07T01:51:53;14.10;;;5.40;;
57317;SDS011;43157;50.982;18.132;2023-09-07T01:54:20;12.50;;;5.40;;
57317;SDS011;43157;50.982;18.132;2023-09-07T01:56:46;12.70;;;5.30;;
57317;SDS011;43157;50.982;18.132;2023-09-07T01:59:13;13.10;;;6.00;;
57317;SDS011;43157;50.982;18.132;2023-09-07T02:01:39;15.90;;;5.60;;
57317;SDS011;43157;50.982;18.132;2023-09-07T02:04:06;12.90;;;4.90;;
57317;SDS011;43157;50.982;18.132;2023-09-07T02:06:32;17.00;;;5.20;;
57317;SDS011;43157;50.982;18.132;2023-09-07T02:08:58;13.20;;;5.60;;
57317;SDS011;43157;50.982;18.132;2023-09-07T02:11:24;13.00;;;5.20;;
57317;SDS011;43157;50.982;18.132;2023-09-07T02:13:50;12.50;;;5.70;;
57317;SDS011;43157;50.982;18.132;2023-09-07T02:16:16;14.50;;;5.70;;
57317;SDS011;43157;50.982;18.132;2023-09-07T02:18:44;15.40;;;5.90;;
57317;SDS011;43157;50.982;18.132;2023-09-07T02:21:11;17.20;;;5.70;;
57317;SDS011;43157;50.982;18.132;2023-09-07T02:23:37;13.00;;;5.20;;
57317;SDS011;43157;50.982;18.132;2023-09-07T02:26:03;13.90;;;5.10;;
57317;SDS011;43157;50.982;18.132;2023-09-07T02:28:29;18.10;;;6.10;;
57317;SDS011;43157;50.982;18.132;2023-09-07T02:31:02;13.10;;;5.90;;
57317;SDS011;43157;50.982;18.132;2023-09-07T02:33:29;14.30;;;5.70;;
57317;SDS011;43157;50.982;18.132;2023-09-07T02:35:55;15.40;;;5.90;;
57317;SDS011;43157;50.982;18.132;2023-09-07T02:38:22;13.10;;;5.90;;
57317;SDS011;43157;50.982;18.132;2023-09-07T02:40:48;20.60;;;9.80;;
57317;SDS011;43157;50.982;18.132;2023-09-07T02:43:14;16.90;;;7.10;;
57317;SDS011;43157;50.982;18.132;2023-09-07T02:45:41;15.20;;;6.40;;
57317;SDS011;43157;50.982;18.132;2023-09-07T02:48:08;16.10;;;6.00;;
57317;SDS011;43157;50.982;18.132;2023-09-07T02:50:34;13.30;;;5.50;;
57317;SDS011;43157;50.982;18.132;2023-09-07T02:53:00;17.50;;;5.70;;
57317;SDS011;43157;50.982;18.132;2023-09-07T02:55:27;14.00;;;5.80;;
57317;SDS011;43157;50.982;18.132;2023-09-07T02:57:53;34.10;;;15.00;;
57317;SDS011;43157;50.982;18.132;2023-09-07T03:00:20;16.40;;;7.50;;
57317;SDS011;43157;50.982;18.132;2023-09-07T03:02:47;16.80;;;6.50;;
57317;SDS011;43157;50.982;18.132;2023-09-07T03:05:16;26.20;;;14.90;;
57317;SDS011;43157;50.982;18.132;2023-09-07T03:07:44;14.60;;;6.40;;
57317;SDS011;43157;50.982;18.132;2023-09-07T03:10:10;16.50;;;6.70;;
57317;SDS011;43157;50.982;18.132;2023-09-07T03:12:36;16.40;;;6.90;;
57317;SDS011;43157;50.982;18.132;2023-09-07T03:15:03;14.10;;;5.80;;
57317;SDS011;43157;50.982;18.132;2023-09-07T03:17:30;14.50;;;5.40;;
57317;SDS011;43157;50.982;18.132;2023-09-07T03:19:56;14.60;;;5.90;;
57317;SDS011;43157;50.982;18.132;2023-09-07T03:22:22;13.90;;;5.70;;
57317;SDS011;43157;50.982;18.132;2023-09-07T03:24:50;13.60;;;5.30;;
57317;SDS011;43157;50.982;18.132;2023-09-07T03:27:16;16.30;;;6.20;;
57317;SDS011;43157;50.982;18.132;2023-09-07T03:29:43;15.70;;;6.40;;
57317;SDS011;43157;50.982;18.132;2023-09-07T03:32:09;20.00;;;6.20;;
57317;SDS011;43157;50.982;18.132;2023-09-07T03:34:36;13.90;;;5.60;;
57317;SDS011;43157;50.982;18.132;2023-09-07T03:37:02;17.40;;;6.10;;
57317;SDS011;43157;50.982;18.132;2023-09-07T03:39:32;13.10;;;6.10;;
57317;SDS011;43157;50.982;18.132;2023-09-07T03:41:58;15.80;;;6.30;;
57317;SDS011;43157;50.982;18.132;2023-09-07T03:44:24;13.50;;;5.70;;
57317;SDS011;43157;50.982;18.132;2023-09-07T03:46:50;14.70;;;5.80;;
57317;SDS011;43157;50.982;18.132;2023-09-07T03:49:16;15.30;;;6.40;;
57317;SDS011;43157;50.982;18.132;2023-09-07T03:51:43;14.10;;;6.10;;
57317;SDS011;43157;50.982;18.132;2023-09-07T03:54:09;16.00;;;5.40;;
57317;SDS011;43157;50.982;18.132;2023-09-07T03:56:35;13.60;;;5.70;;
57317;SDS011;43157;50.982;18.132;2023-09-07T03:59:01;13.70;;;5.80;;
57317;SDS011;43157;50.982;18.132;2023-09-07T04:14:02;15.00;;;5.90;;
57317;SDS011;43157;50.982;18.132;2023-09-07T04:16:27;13.40;;;6.10;;
57317;SDS011;43157;50.982;18.132;2023-09-07T04:18:53;15.20;;;6.20;;
57317;SDS011;43157;50.982;18.132;2023-09-07T04:21:20;14.30;;;6.30;;
57317;SDS011;43157;50.982;18.132;2023-09-07T04:23:46;16.00;;;5.50;;
57317;SDS011;43157;50.982;18.132;2023-09-07T04:26:13;14.90;;;5.80;;
57317;SDS011;43157;50.982;18.132;2023-09-07T04:28:39;13.60;;;6.10;;
57317;SDS011;43157;50.982;18.132;2023-09-07T04:31:05;16.60;;;6.00;;
57317;SDS011;43157;50.982;18.132;2023-09-07T04:33:31;13.40;;;5.70;;
57317;SDS011;43157;50.982;18.132;2023-09-07T04:36:07;19.00;;;7.30;;
57317;SDS011;43157;50.982;18.132;2023-09-07T04:38:37;14.80;;;6.00;;
57317;SDS011;43157;50.982;18.132;2023-09-07T04:41:09;16.70;;;6.20;;
57317;SDS011;43157;50.982;18.132;2023-09-07T04:43:36;14.80;;;6.20;;
57317;SDS011;43157;50.982;18.132;2023-09-07T04:46:03;18.10;;;6.10;;
57317;SDS011;43157;50.982;18.132;2023-09-07T04:48:29;15.20;;;6.90;;
57317;SDS011;43157;50.982;18.132;2023-09-07T04:50:59;17.70;;;6.70;;
57317;SDS011;43157;50.982;18.132;2023-09-07T04:53:29;18.00;;;7.60;;
57317;SDS011;43157;50.982;18.132;2023-09-07T04:55:56;23.30;;;9.60;;
57317;SDS011;43157;50.982;18.132;2023-09-07T04:58:22;18.40;;;7.30;;
57317;SDS011;43157;50.982;18.132;2023-09-07T05:00:48;16.00;;;6.80;;
57317;SDS011;43157;50.982;18.132;2023-09-07T05:03:14;19.30;;;7.00;;
57317;SDS011;43157;50.982;18.132;2023-09-07T05:05:41;17.70;;;6.80;;
57317;SDS011;43157;50.982;18.132;2023-09-07T05:08:07;19.40;;;6.80;;
57317;SDS011;43157;50.982;18.132;2023-09-07T05:10:33;17.70;;;6.50;;
57317;SDS011;43157;50.982;18.132;2023-09-07T05:13:00;15.50;;;6.30;;
57317;SDS011;43157;50.982;18.132;2023-09-07T05:15:26;20.30;;;7.50;;
57317;SDS011;43157;50.982;18.132;2023-09-07T05:17:52;19.90;;;6.60;;
57317;SDS011;43157;50.982;18.132;2023-09-07T05:20:18;16.00;;;6.80;;
57317;SDS011;43157;50.982;18.132;2023-09-07T05:22:45;19.40;;;7.50;;
57317;SDS011;43157;50.982;18.132;2023-09-07T05:25:11;18.00;;;7.70;;
57317;SDS011;43157;50.982;18.132;2023-09-07T05:27:37;22.70;;;8.40;;
57317;SDS011;43157;50.982;18.132;2023-09-07T05:30:04;17.30;;;6.90;;
57317;SDS011;43157;50.982;18.132;2023-09-07T05:32:30;19.80;;;6.60;;
57317;SDS011;43157;50.982;18.132;2023-09-07T05:34:56;16.50;;;5.80;;
57317;SDS011;43157;50.982;18.132;2023-09-07T05:37:22;17.70;;;6.50;;
57317;SDS011;43157;50.982;18.132;2023-09-07T05:39:48;14.40;;;6.40;;
57317;SDS011;43157;50.982;18.132;2023-09-07T05:42:14;14.90;;;5.80;;
57317;SDS011;43157;50.982;18.132;2023-09-07T05:44:41;16.70;;;6.50;;
57317;SDS011;43157;50.982;18.132;2023-09-07T05:47:07;16.80;;;6.20;;
57317;SDS011;43157;50.982;18.132;2023-09-07T05:49:33;19.70;;;6.30;;
57317;SDS011;43157;50.982;18.132;2023-09-07T05:52:00;20.40;;;7.30;;
57317;SDS011;43157;50.982;18.132;2023-09-07T05:54:26;14.70;;;5.80;;
57317;SDS011;43157;50.982;18.132;2023-09-07T05:56:52;15.40;;;6.50;;
57317;SDS011;43157;50.982;18.132;2023-09-07T05:59:18;12.50;;;5.50;;
57317;SDS011;43157;50.982;18.132;2023-09-07T06:01:45;15.80;;;6.70;;
57317;SDS011;43157;50.982;18.132;2023-09-07T06:04:11;16.90;;;6.40;;
57317;SDS011;43157;50.982;18.132;2023-09-07T06:06:37;18.70;;;5.80;;
57317;SDS011;43157;50.982;18.132;2023-09-07T06:09:03;14.00;;;5.50;;
57317;SDS011;43157;50.982;18.132;2023-09-07T06:11:29;13.30;;;5.60;;
57317;SDS011;43157;50.982;18.132;2023-09-07T06:13:58;15.00;;;5.60;;
57317;SDS011;43157;50.982;18.132;2023-09-07T06:16:24;16.20;;;6.10;;
57317;SDS011;43157;50.982;18.132;2023-09-07T06:18:50;17.90;;;6.50;;
57317;SDS011;43157;50.982;18.132;2023-09-07T06:21:16;13.90;;;5.90;;
57317;SDS011;43157;50.982;18.132;2023-09-07T06:23:43;14.70;;;6.60;;
57317;SDS011;43157;50.982;18.132;2023-09-07T06:26:09;15.60;;;6.30;;
57317;SDS011;43157;50.982;18.132;2023-09-07T06:28:35;14.60;;;5.40;;
57317;SDS011;43157;50.982;18.132;2023-09-07T06:31:02;14.70;;;6.10;;
57317;SDS011;43157;50.982;18.132;2023-09-07T06:33:28;16.50;;;6.20;;
57317;SDS011;43157;50.982;18.132;2023-09-07T06:35:54;14.10;;;6.40;;
57317;SDS011;43157;50.982;18.132;2023-09-07T06:38:21;17.50;;;6.50;;
57317;SDS011;43157;50.982;18.132;2023-09-07T06:40:50;13.70;;;6.90;;
57317;SDS011;43157;50.982;18.132;2023-09-07T06:43:16;15.50;;;6.70;;
57317;SDS011;43157;50.982;18.132;2023-09-07T06:45:42;15.30;;;6.80;;
57317;SDS011;43157;50.982;18.132;2023-09-07T06:48:08;16.10;;;6.50;;
57317;SDS011;43157;50.982;18.132;2023-09-07T06:50:34;15.80;;;6.90;;
57317;SDS011;43157;50.982;18.132;2023-09-07T06:53:01;16.10;;;6.30;;
57317;SDS011;43157;50.982;18.132;2023-09-07T06:55:28;15.40;;;6.40;;
57317;SDS011;43157;50.982;18.132;2023-09-07T06:57:54;15.80;;;6.40;;
57317;SDS011;43157;50.982;18.132;2023-09-07T07:00:21;14.50;;;6.30;;
57317;SDS011;43157;50.982;18.132;2023-09-07T07:02:47;12.40;;;5.40;;
57317;SDS011;43157;50.982;18.132;2023-09-07T07:05:13;15.60;;;6.00;;
57317;SDS011;43157;50.982;18.132;2023-09-07T07:07:39;14.60;;;5.80;;
57317;SDS011;43157;50.982;18.132;2023-09-07T07:10:06;15.20;;;6.00;;
57317;SDS011;43157;50.982;18.132;2023-09-07T07:12:32;13.30;;;5.60;;
57317;SDS011;43157;50.982;18.132;2023-09-07T07:15:04;21.00;;;9.60;;
57317;SDS011;43157;50.982;18.132;2023-09-07T07:17:30;12.30;;;5.40;;
57317;SDS011;43157;50.982;18.132;2023-09-07T07:19:57;11.90;;;5.40;;
57317;SDS011;43157;50.982;18.132;2023-09-07T07:22:23;14.20;;;7.10;;
57317;SDS011;43157;50.982;18.132;2023-09-07T07:24:49;13.70;;;5.70;;
57317;SDS011;43157;50.982;18.132;2023-09-07T07:27:15;15.80;;;6.10;;
57317;SDS011;43157;50.982;18.132;2023-09-07T07:29:41;15.60;;;6.60;;
57317;SDS011;43157;50.982;18.132;2023-09-07T07:32:08;14.50;;;6.70;;
57317;SDS011;43157;50.982;18.132;2023-09-07T07:34:34;13.60;;;5.90;;
57317;SDS011;43157;50.982;18.132;2023-09-07T07:37:00;13.30;;;5.50;;
57317;SDS011;43157;50.982;18.132;2023-09-07T07:39:26;13.60;;;4.60;;
57317;SDS011;43157;50.982;18.132;2023-09-07T07:41:52;12.00;;;3.70;;
57317;SDS011;43157;50.982;18.132;2023-09-07T07:44:19;12.80;;;5.20;;
57317;SDS011;43157;50.982;18.132;2023-09-07T07:46:45;14.20;;;5.30;;
57317;SDS011;43157;50.982;18.132;2023-09-07T07:49:11;13.30;;;5.40;;
57317;SDS011;43157;50.982;18.132;2023-09-07T07:51:37;11.50;;;4.90;;
57317;SDS011;43157;50.982;18.132;2023-09-07T07:54:03;11.20;;;4.90;;
57317;SDS011;43157;50.982;18.132;2023-09-07T07:56:30;11.40;;;4.70;;
57317;SDS011;43157;50.982;18.132;2023-09-07T07:58:56;12.80;;;5.50;;
57317;SDS011;43157;50.982;18.132;2023-09-07T08:01:22;10.70;;;4.50;;
57317;SDS011;43157;50.982;18.132;2023-09-07T08:03:48;10.90;;;4.70;;
57317;SDS011;43157;50.982;18.132;2023-09-07T08:06:15;13.20;;;5.10;;
57317;SDS011;43157;50.982;18.132;2023-09-07T08:08:41;11.10;;;4.90;;
57317;SDS011;43157;50.982;18.132;2023-09-07T08:11:07;12.50;;;5.00;;
57317;SDS011;43157;50.982;18.132;2023-09-07T08:13:34;10.60;;;4.50;;
57317;SDS011;43157;50.982;18.132;2023-09-07T08:16:01;13.00;;;4.90;;
57317;SDS011;43157;50.982;18.132;2023-09-07T08:18:27;12.40;;;4.40;;
57317;SDS011;43157;50.982;18.132;2023-09-07T08:20:53;10.80;;;4.00;;
57317;SDS011;43157;50.982;18.132;2023-09-07T08:23:21;10.60;;;4.30;;
57317;SDS011;43157;50.982;18.132;2023-09-07T08:25:48;12.40;;;5.00;;
57317;SDS011;43157;50.982;18.132;2023-09-07T08:28:16;10.90;;;4.40;;
57317;SDS011;43157;50.982;18.132;2023-09-07T08:30:44;10.60;;;4.30;;
57317;SDS011;43157;50.982;18.132;2023-09-07T08:33:10;10.40;;;4.20;;
57317;SDS011;43157;50.982;18.132;2023-09-07T08:35:36;9.80;;;4.20;;
57317;SDS011;43157;50.982;18.132;2023-09-07T08:38:12;10.60;;;4.10;;
57317;SDS011;43157;50.982;18.132;2023-09-07T08:40:38;13.20;;;4.60;;
57317;SDS011;43157;50.982;18.132;2023-09-07T08:43:05;10.70;;;4.30;;
57317;SDS011;43157;50.982;18.132;2023-09-07T08:45:37;10.60;;;4.10;;
57317;SDS011;43157;50.982;18.132;2023-09-07T08:48:08;11.60;;;3.90;;
57317;SDS011;43157;50.982;18.132;2023-09-07T08:50:36;13.70;;;4.30;;
57317;SDS011;43157;50.982;18.132;2023-09-07T08:53:03;11.10;;;4.40;;
57317;SDS011;43157;50.982;18.132;2023-09-07T08:55:30;11.80;;;4.10;;
57317;SDS011;43157;50.982;18.132;2023-09-07T08:57:56;12.60;;;4.60;;
57317;SDS011;43157;50.982;18.132;2023-09-07T09:00:22;13.30;;;4.20;;
57317;SDS011;43157;50.982;18.132;2023-09-07T09:02:49;11.30;;;5.00;;
57317;SDS011;43157;50.982;18.132;2023-09-07T09:05:15;15.50;;;5.20;;
57317;SDS011;43157;50.982;18.132;2023-09-07T09:07:43;13.10;;;4.20;;
57317;SDS011;43157;50.982;18.132;2023-09-07T09:10:10;10.70;;;3.50;;
57317;SDS011;43157;50.982;18.132;2023-09-07T09:12:36;15.10;;;4.60;;
57317;SDS011;43157;50.982;18.132;2023-09-07T09:15:11;10.30;;;3.60;;
57317;SDS011;43157;50.982;18.132;2023-09-07T09:17:38;10.20;;;4.20;;
57317;SDS011;43157;50.982;18.132;2023-09-07T09:20:04;11.30;;;3.80;;
57317;SDS011;43157;50.982;18.132;2023-09-07T09:22:35;12.10;;;4.40;;
57317;SDS011;43157;50.982;18.132;2023-09-07T09:25:04;11.20;;;3.60;;
57317;SDS011;43157;50.982;18.132;2023-09-07T09:27:30;11.50;;;4.40;;
57317;SDS011;43157;50.982;18.132;2023-09-07T09:29:57;11.30;;;4.40;;
57317;SDS011;43157;50.982;18.132;2023-09-07T09:32:24;11.80;;;3.70;;
57317;SDS011;43157;50.982;18.132;2023-09-07T09:34:50;9.10;;;3.50;;
57317;SDS011;43157;50.982;18.132;2023-09-07T09:37:16;10.60;;;3.80;;
57317;SDS011;43157;50.982;18.132;2023-09-07T09:39:42;9.00;;;3.80;;
57317;SDS011;43157;50.982;18.132;2023-09-07T09:42:09;11.30;;;4.20;;
57317;SDS011;43157;50.982;18.132;2023-09-07T09:44:35;8.80;;;3.20;;
57317;SDS011;43157;50.982;18.132;2023-09-07T09:47:02;10.90;;;3.20;;
57317;SDS011;43157;50.982;18.132;2023-09-07T09:49:29;10.00;;;3.20;;
57317;SDS011;43157;50.982;18.132;2023-09-07T09:51:55;9.00;;;3.40;;
57317;SDS011;43157;50.982;18.132;2023-09-07T09:54:22;8.50;;;3.40;;
57317;SDS011;43157;50.982;18.132;2023-09-07T09:56:49;10.20;;;3.80;;
57317;SDS011;43157;50.982;18.132;2023-09-07T09:59:15;9.40;;;3.80;;
57317;SDS011;43157;50.982;18.132;2023-09-07T10:01:43;8.60;;;3.70;;
57317;SDS011;43157;50.982;18.132;2023-09-07T10:04:10;8.80;;;3.40;;
57317;SDS011;43157;50.982;18.132;2023-09-07T10:06:38;9.30;;;4.00;;
57317;SDS011;43157;50.982;18.132;2023-09-07T10:09:05;8.50;;;3.30;;
57317;SDS011;43157;50.982;18.132;2023-09-07T10:11:37;9.30;;;3.90;;
57317;SDS011;43157;50.982;18.132;2023-09-07T10:14:04;10.00;;;4.00;;
57317;SDS011;43157;50.982;18.132;2023-09-07T10:16:44;11.70;;;4.10;;
57317;SDS011;43157;50.982;18.132;2023-09-07T10:19:14;8.20;;;3.50;;
57317;SDS011;43157;50.982;18.132;2023-09-07T10:21:40;11.50;;;4.30;;
57317;SDS011;43157;50.982;18.132;2023-09-07T10:24:06;12.30;;;4.10;;
57317;SDS011;43157;50.982;18.132;2023-09-07T10:26:32;9.90;;;3.90;;
57317;SDS011;43157;50.982;18.132;2023-09-07T10:28:59;9.50;;;3.80;;
57317;SDS011;43157;50.982;18.132;2023-09-07T10:31:26;12.10;;;4.20;;
57317;SDS011;43157;50.982;18.132;2023-09-07T10:33:52;10.40;;;3.90;;
57317;SDS011;43157;50.982;18.132;2023-09-07T10:36:22;12.10;;;3.40;;
57317;SDS011;43157;50.982;18.132;2023-09-07T10:38:49;8.80;;;3.30;;
57317;SDS011;43157;50.982;18.132;2023-09-07T10:41:18;12.70;;;3.90;;
57317;SDS011;43157;50.982;18.132;2023-09-07T10:43:48;9.80;;;4.10;;
57317;SDS011;43157;50.982;18.132;2023-09-07T10:46:14;9.20;;;3.20;;
57317;SDS011;43157;50.982;18.132;2023-09-07T10:48:40;10.00;;;3.40;;
57317;SDS011;43157;50.982;18.132;2023-09-07T10:51:07;9.70;;;4.20;;
57317;SDS011;43157;50.982;18.132;2023-09-07T10:53:33;10.40;;;3.80;;
57317;SDS011;43157;50.982;18.132;2023-09-07T10:56:02;11.90;;;3.90;;
57317;SDS011;43157;50.982;18.132;2023-09-07T10:58:30;8.90;;;3.50;;
57317;SDS011;43157;50.982;18.132;2023-09-07T11:00:59;14.30;;;3.70;;
57317;SDS011;43157;50.982;18.132;2023-09-07T11:03:26;9.70;;;3.80;;
57317;SDS011;43157;50.982;18.132;2023-09-07T11:05:57;9.10;;;3.30;;
57317;SDS011;43157;50.982;18.132;2023-09-07T11:08:25;10.90;;;3.60;;
57317;SDS011;43157;50.982;18.132;2023-09-07T11:10:54;10.70;;;3.20;;
57317;SDS011;43157;50.982;18.132;2023-09-07T11:13:20;11.90;;;3.90;;
57317;SDS011;43157;50.982;18.132;2023-09-07T11:15:48;9.10;;;3.80;;
57317;SDS011;43157;50.982;18.132;2023-09-07T11:18:19;10.10;;;3.80;;
57317;SDS011;43157;50.982;18.132;2023-09-07T11:20:46;10.40;;;3.50;;
57317;SDS011;43157;50.982;18.132;2023-09-07T11:23:13;8.90;;;3.50;;
57317;SDS011;43157;50.982;18.132;2023-09-07T11:25:38;8.80;;;3.50;;
57317;SDS011;43157;50.982;18.132;2023-09-07T11:28:05;9.10;;;3.50;;
57317;SDS011;43157;50.982;18.132;2023-09-07T11:30:32;18.90;;;3.40;;
57317;SDS011;43157;50.982;18.132;2023-09-07T11:33:02;8.10;;;3.30;;
57317;SDS011;43157;50.982;18.132;2023-09-07T11:35:32;10.70;;;3.60;;
57317;SDS011;43157;50.982;18.132;2023-09-07T11:38:02;9.00;;;3.60;;
57317;SDS011;43157;50.982;18.132;2023-09-07T11:40:30;9.80;;;3.30;;
57317;SDS011;43157;50.982;18.132;2023-09-07T11:42:56;8.60;;;3.40;;
57317;SDS011;43157;50.982;18.132;2023-09-07T11:45:22;9.40;;;3.70;;
57317;SDS011;43157;50.982;18.132;2023-09-07T11:47:48;9.00;;;3.60;;
57317;SDS011;43157;50.982;18.132;2023-09-07T11:50:18;10.70;;;3.50;;
57317;SDS011;43157;50.982;18.132;2023-09-07T11:52:46;9.40;;;3.30;;
57317;SDS011;43157;50.982;18.132;2023-09-07T11:55:15;8.40;;;3.30;;
57317;SDS011;43157;50.982;18.132;2023-09-07T11:57:41;8.10;;;3.10;;
57317;SDS011;43157;50.982;18.132;2023-09-07T12:00:08;10.20;;;3.30;;
57317;SDS011;43157;50.982;18.132;2023-09-07T12:02:40;10.50;;;3.60;;
57317;SDS011;43157;50.982;18.132;2023-09-07T12:05:06;7.50;;;3.00;;
57317;SDS011;43157;50.982;18.132;2023-09-07T12:07:36;8.60;;;3.30;;
57317;SDS011;43157;50.982;18.132;2023-09-07T12:10:02;7.90;;;3.10;;
57317;SDS011;43157;50.982;18.132;2023-09-07T12:12:28;10.40;;;3.60;;
57317;SDS011;43157;50.982;18.132;2023-09-07T12:14:54;10.40;;;3.30;;
57317;SDS011;43157;50.982;18.132;2023-09-07T12:17:22;8.70;;;3.40;;
57317;SDS011;43157;50.982;18.132;2023-09-07T12:19:51;9.40;;;3.20;;
57317;SDS011;43157;50.982;18.132;2023-09-07T12:22:17;11.20;;;3.30;;
57317;SDS011;43157;50.982;18.132;2023-09-07T12:24:44;7.20;;;2.80;;
57317;SDS011;43157;50.982;18.132;2023-09-07T12:27:10;9.30;;;3.40;;
57317;SDS011;43157;50.982;18.132;2023-09-07T12:29:36;9.40;;;3.30;;
57317;SDS011;43157;50.982;18.132;2023-09-07T12:32:11;9.30;;;3.30;;
57317;SDS011;43157;50.982;18.132;2023-09-07T12:34:38;10.30;;;2.90;;
57317;SDS011;43157;50.982;18.132;2023-09-07T12:37:04;7.60;;;2.70;;
57317;SDS011;43157;50.982;18.132;2023-09-07T12:39:31;10.10;;;3.20;;
57317;SDS011;43157;50.982;18.132;2023-09-07T12:42:00;10.10;;;3.70;;
57317;SDS011;43157;50.982;18.132;2023-09-07T12:44:27;8.30;;;3.30;;
57317;SDS011;43157;50.982;18.132;2023-09-07T12:46:53;8.60;;;3.20;;
57317;SDS011;43157;50.982;18.132;2023-09-07T12:49:19;8.10;;;3.10;;
57317;SDS011;43157;50.982;18.132;2023-09-07T12:51:45;7.20;;;2.80;;
57317;SDS011;43157;50.982;18.132;2023-09-07T12:54:12;9.80;;;3.30;;
57317;SDS011;43157;50.982;18.132;2023-09-07T12:56:38;7.40;;;3.00;;
57317;SDS011;43157;50.982;18.132;2023-09-07T12:59:05;7.90;;;2.80;;
57317;SDS011;43157;50.982;18.132;2023-09-07T13:01:31;12.50;;;3.30;;
57317;SDS011;43157;50.982;18.132;2023-09-07T13:03:57;7.40;;;2.00;;
57317;SDS011;43157;50.982;18.132;2023-09-07T13:06:24;6.80;;;2.60;;
57317;SDS011;43157;50.982;18.132;2023-09-07T13:08:50;8.10;;;2.70;;
57317;SDS011;43157;50.982;18.132;2023-09-07T13:11:16;8.10;;;3.00;;
57317;SDS011;43157;50.982;18.132;2023-09-07T13:13:42;9.90;;;3.50;;
57317;SDS011;43157;50.982;18.132;2023-09-07T13:16:08;9.00;;;2.80;;
57317;SDS011;43157;50.982;18.132;2023-09-07T13:18:35;8.30;;;2.40;;
57317;SDS011;43157;50.982;18.132;2023-09-07T13:21:01;10.50;;;2.80;;
57317;SDS011;43157;50.982;18.132;2023-09-07T13:23:27;9.20;;;2.50;;
57317;SDS011;43157;50.982;18.132;2023-09-07T13:25:54;6.50;;;2.50;;
57317;SDS011;43157;50.982;18.132;2023-09-07T13:28:21;8.10;;;2.80;;
57317;SDS011;43157;50.982;18.132;2023-09-07T13:30:47;7.50;;;2.70;;
57317;SDS011;43157;50.982;18.132;2023-09-07T13:33:14;9.00;;;3.00;;
57317;SDS011;43157;50.982;18.132;2023-09-07T13:35:40;8.50;;;2.90;;
57317;SDS011;43157;50.982;18.132;2023-09-07T13:38:06;8.90;;;2.90;;
57317;SDS011;43157;50.982;18.132;2023-09-07T13:40:32;8.20;;;2.00;;
57317;SDS011;43157;50.982;18.132;2023-09-07T13:42:58;7.30;;;2.60;;
57317;SDS011;43157;50.982;18.132;2023-09-07T13:45:25;8.60;;;2.70;;
57317;SDS011;43157;50.982;18.132;2023-09-07T13:47:51;6.20;;;2.30;;
57317;SDS011;43157;50.982;18.132;2023-09-07T13:50:17;8.80;;;2.70;;
57317;SDS011;43157;50.982;18.132;2023-09-07T13:52:43;9.90;;;3.40;;
57317;SDS011;43157;50.982;18.132;2023-09-07T13:55:09;8.90;;;2.80;;
57317;SDS011;43157;50.982;18.132;2023-09-07T13:57:36;7.80;;;2.50;;
57317;SDS011;43157;50.982;18.132;2023-09-07T14:00:02;7.80;;;2.40;;
57317;SDS011;43157;50.982;18.132;2023-09-07T14:02:31;8.70;;;2.60;;
57317;SDS011;43157;50.982;18.132;2023-09-07T14:04:58;7.70;;;2.60;;
57317;SDS011;43157;50.982;18.132;2023-09-07T14:07:24;7.20;;;2.70;;
57317;SDS011;43157;50.982;18.132;2023-09-07T14:09:54;8.90;;;2.50;;
57317;SDS011;43157;50.982;18.132;2023-09-07T14:12:20;8.50;;;2.60;;
57317;SDS011;43157;50.982;18.132;2023-09-07T14:14:49;8.00;;;2.70;;
57317;SDS011;43157;50.982;18.132;2023-09-07T14:17:15;9.50;;;2.80;;
57317;SDS011;43157;50.982;18.132;2023-09-07T14:19:42;7.50;;;2.70;;
57317;SDS011;43157;50.982;18.132;2023-09-07T14:22:08;7.20;;;2.50;;
57317;SDS011;43157;50.982;18.132;2023-09-07T14:24:34;7.90;;;2.70;;
57317;SDS011;43157;50.982;18.132;2023-09-07T14:27:00;8.50;;;3.00;;
57317;SDS011;43157;50.982;18.132;2023-09-07T14:29:26;8.40;;;3.10;;
57317;SDS011;43157;50.982;18.132;2023-09-07T14:31:54;8.20;;;3.20;;
57317;SDS011;43157;50.982;18.132;2023-09-07T14:34:20;8.40;;;3.00;;
57317;SDS011;43157;50.982;18.132;2023-09-07T14:36:46;9.40;;;3.30;;